createdAt,value
2022-09-23T07:53:16.602Z,2.10
2022-09-23T07:55:44.903Z,2.00
2022-09-23T07:58:14.590Z,1.80
2022-09-23T08:00:42.816Z,1.90
2022-09-23T08:03:11.138Z,1.70
2022-09-23T08:05:40.156Z,2.00
2022-09-23T08:08:09.151Z,2.00
2022-09-23T08:10:38.739Z,2.00
2022-09-23T08:13:07.136Z,2.00
2022-09-23T08:15:35.811Z,2.10
2022-09-23T08:18:04.293Z,2.27
2022-09-23T08:20:48.145Z,2.00
2022-09-23T08:23:18.486Z,2.10
2022-09-23T08:25:48.511Z,2.43
2022-09-23T08:28:19.171Z,1.80
2022-09-23T08:30:50.026Z,2.20
2022-09-23T08:33:23.159Z,1.93
2022-09-23T08:35:52.701Z,1.77
2022-09-23T08:38:21.183Z,2.10
2022-09-23T08:40:51.231Z,2.10
2022-09-23T08:43:26.571Z,1.90
2022-09-23T08:45:56.553Z,2.07
2022-09-23T08:48:30.274Z,2.00
2022-09-23T08:51:05.536Z,1.87
2022-09-23T08:53:36.265Z,1.80
2022-09-23T08:56:08.821Z,1.80
2022-09-23T08:58:50.823Z,1.20
2022-09-23T09:01:26.171Z,1.60
2022-09-23T09:03:57.247Z,1.60
2022-09-23T09:06:32.091Z,1.67
2022-09-23T09:09:03.433Z,1.70
2022-09-23T09:11:38.124Z,1.53
2022-09-23T09:14:17.064Z,1.40
2022-09-23T09:16:59.868Z,1.60
2022-09-23T09:19:53.073Z,1.53
2022-09-23T09:22:24.986Z,1.40
2022-09-23T09:25:00.161Z,1.53
2022-09-23T09:27:29.943Z,1.40
2022-09-23T09:30:01.442Z,1.30
2022-09-23T09:32:44.029Z,1.20
2022-09-23T09:35:29.349Z,1.20
2022-09-23T09:37:57.668Z,1.10
2022-09-23T09:40:25.951Z,1.47
2022-09-23T09:42:55.609Z,1.50
2022-09-23T09:45:37.951Z,1.37
2022-09-23T09:48:13.303Z,1.30
2022-09-23T09:50:49.234Z,1.10
2022-09-23T09:53:26.621Z,1.13
2022-09-23T09:56:05.746Z,1.57
2022-09-23T09:58:43.978Z,1.23
2022-09-23T10:01:21.059Z,1.43
2022-09-23T10:03:52.115Z,1.30
2022-09-23T10:06:26.049Z,1.20
2022-09-23T10:09:13.889Z,1.40
2022-09-23T10:11:43.183Z,1.40
2022-09-23T10:14:18.671Z,1.10
2022-09-23T10:16:49.039Z,1.10
2022-09-23T10:22:21.353Z,1.30
2022-09-23T10:24:51.215Z,1.30
2022-09-23T10:27:28.918Z,1.30
2022-09-23T10:30:00.285Z,1.30
2022-09-23T10:32:31.483Z,1.10
2022-09-23T10:35:04.729Z,1.30
2022-09-23T10:37:37.301Z,1.30
2022-09-23T10:40:36.295Z,1.23
2022-09-23T10:43:53.952Z,1.20
2022-09-23T10:46:42.455Z,1.40
2022-09-23T10:49:46.619Z,1.40
2022-09-23T10:52:39.175Z,1.10
2022-09-23T10:55:23.987Z,1.30
2022-09-23T10:58:28.458Z,1.70
2022-09-23T11:01:13.098Z,1.07
2022-09-23T11:04:14.643Z,1.07
2022-09-23T11:07:00.530Z,1.10
2022-09-23T11:09:43.293Z,1.00
2022-09-23T11:12:26.838Z,0.90
2022-09-23T11:15:11.142Z,1.10
2022-09-23T11:18:11.591Z,0.90
2022-09-23T11:20:52.878Z,0.90
2022-09-23T11:23:56.643Z,1.10
2022-09-23T11:26:36.809Z,1.03
2022-09-23T11:29:42.630Z,1.03
2022-09-23T11:32:34.144Z,1.50
2022-09-23T11:35:12.661Z,0.97
2022-09-23T11:37:46.089Z,1.10
2022-09-23T11:40:19.397Z,1.10
2022-09-23T11:42:55.242Z,1.10
2022-09-23T11:45:29.173Z,1.00
2022-09-23T11:48:01.806Z,0.80
2022-09-23T11:50:33.978Z,0.90
2022-09-23T11:53:09.947Z,0.90
2022-09-23T11:55:54.885Z,0.83
2022-09-23T11:58:27.996Z,1.30
2022-09-23T12:01:02.282Z,1.10
2022-09-23T12:03:44.388Z,1.00
2022-09-23T12:06:18.639Z,1.07
2022-09-23T12:08:51.153Z,0.90
2022-09-23T12:11:29.020Z,0.90
2022-09-23T12:14:11.000Z,0.80
2022-09-23T12:17:08.261Z,1.20
2022-09-23T12:19:41.610Z,0.90
2022-09-23T12:22:24.122Z,1.20
2022-09-23T12:25:00.385Z,1.00
2022-09-23T12:27:36.232Z,1.10
2022-09-23T12:30:15.691Z,1.00
2022-09-23T12:32:44.553Z,1.13
2022-09-23T12:35:23.484Z,1.10
2022-09-23T12:37:53.178Z,1.10
2022-09-23T12:40:31.209Z,1.20
2022-09-23T12:43:01.258Z,1.10
2022-09-23T12:45:39.046Z,1.20
2022-09-23T12:48:43.855Z,1.33
2022-09-23T12:51:19.032Z,1.20
2022-09-23T12:54:15.358Z,1.00
2022-09-23T12:57:03.949Z,1.33
2022-09-23T12:59:53.160Z,1.20
2022-09-23T13:02:34.747Z,1.27
2022-09-23T13:05:36.446Z,1.10
2022-09-23T13:08:08.720Z,1.10
2022-09-23T13:10:44.173Z,1.00
2022-09-23T13:13:22.919Z,0.90
2022-09-23T13:15:51.476Z,1.10
2022-09-23T13:18:42.178Z,1.10
2022-09-23T13:21:20.128Z,0.90
2022-09-23T13:24:18.567Z,1.17
2022-09-23T13:26:48.105Z,1.20
2022-09-23T13:29:23.211Z,1.10
2022-09-23T13:31:51.672Z,1.10
2022-09-23T13:34:24.509Z,1.10
2022-09-23T13:36:53.679Z,1.10
2022-09-23T13:39:24.726Z,4.77
2022-09-23T13:41:56.234Z,1.47
2022-09-23T13:44:25.991Z,1.27
2022-09-23T13:46:58.174Z,1.00
2022-09-23T13:49:29.047Z,1.37
2022-09-23T13:51:58.238Z,2.40
2022-09-23T13:54:31.041Z,1.30
2022-09-23T13:57:00.149Z,1.30
2022-09-23T13:59:31.524Z,1.30
2022-09-23T14:02:08.385Z,1.40
2022-09-23T14:04:37.621Z,1.30
2022-09-23T14:07:08.412Z,1.30
2022-09-23T14:09:38.028Z,1.27
2022-09-23T14:12:08.553Z,1.10
2022-09-23T14:14:40.569Z,1.40
2022-09-23T14:17:10.211Z,1.40
2022-09-23T14:22:26.290Z,1.20
2022-09-23T14:24:56.282Z,1.33
2022-09-23T14:27:29.937Z,1.40
2022-09-23T14:30:00.367Z,1.20
2022-09-23T14:32:30.016Z,1.53
2022-09-23T14:35:18.782Z,1.50
2022-09-23T14:38:06.978Z,1.20
2022-09-23T14:40:38.196Z,1.50
2022-09-23T14:43:17.043Z,1.47
2022-09-23T14:45:50.892Z,1.17
2022-09-23T14:48:25.616Z,1.50
2022-09-23T14:50:59.090Z,1.40
2022-09-23T14:53:37.750Z,1.40
2022-09-23T14:56:20.694Z,1.60
2022-09-23T14:58:53.236Z,1.40
2022-09-23T15:01:40.326Z,1.50
2022-09-23T15:04:30.530Z,1.60
2022-09-23T15:07:01.717Z,1.60
2022-09-23T15:09:33.769Z,1.40
2022-09-23T15:12:06.213Z,1.30
2022-09-23T15:14:39.774Z,1.40
2022-09-23T15:17:21.670Z,1.20
2022-09-23T15:22:26.258Z,1.40
2022-09-23T15:24:56.475Z,1.20
2022-09-23T15:27:30.837Z,1.37
2022-09-23T15:30:17.203Z,1.40
2022-09-23T15:32:47.822Z,1.63
2022-09-23T15:35:18.828Z,1.37
2022-09-23T15:37:49.638Z,1.40
2022-09-23T15:40:22.130Z,1.47
2022-09-23T15:42:52.725Z,1.67
2022-09-23T15:45:27.492Z,1.53
2022-09-23T15:48:02.215Z,1.90
2022-09-23T15:50:31.455Z,2.50
2022-09-23T15:52:59.857Z,2.90
2022-09-23T15:55:28.301Z,2.90
2022-09-23T15:57:56.719Z,3.17
2022-09-23T16:00:25.063Z,3.07
2022-09-23T16:02:54.075Z,2.40
2022-09-23T16:05:31.063Z,2.10
2022-09-23T16:08:03.728Z,2.10
2022-09-23T16:10:35.245Z,1.80
2022-09-23T16:13:05.775Z,1.53
2022-09-23T16:15:34.770Z,1.87
2022-09-23T16:18:03.141Z,1.70
2022-09-23T16:20:33.163Z,1.50
2022-09-23T16:23:03.249Z,1.83
2022-09-23T16:25:36.741Z,1.67
2022-09-23T16:28:05.860Z,1.80
2022-09-23T16:30:36.582Z,2.13
2022-09-23T16:33:04.871Z,2.03
2022-09-23T16:35:34.920Z,1.90
2022-09-23T16:38:03.183Z,1.80
2022-09-23T16:40:32.714Z,1.50
2022-09-23T16:43:04.291Z,1.63
2022-09-23T16:45:32.869Z,1.63
2022-09-23T16:48:01.415Z,1.80
2022-09-23T16:50:29.899Z,1.70
2022-09-23T16:52:59.606Z,1.90
2022-09-23T16:55:27.924Z,2.00
2022-09-23T16:57:56.521Z,2.00
2022-09-23T17:00:42.506Z,2.43
2022-09-23T17:03:30.891Z,2.17
2022-09-23T17:06:03.474Z,2.90
2022-09-23T17:08:35.551Z,3.43
2022-09-23T17:11:04.043Z,3.83
2022-09-23T17:13:32.531Z,3.60
2022-09-23T17:16:06.766Z,3.50
2022-09-23T17:18:39.059Z,3.47
2022-09-23T17:21:08.901Z,3.53
2022-09-23T17:23:38.513Z,3.10
2022-09-23T17:26:09.799Z,3.17
2022-09-23T17:28:38.197Z,3.07
2022-09-23T17:31:09.227Z,2.60
2022-09-23T17:33:38.869Z,2.70
2022-09-23T17:36:09.356Z,2.83
2022-09-23T17:38:40.306Z,2.80
2022-09-23T17:41:09.922Z,2.90
2022-09-23T17:43:38.945Z,2.40
2022-09-23T17:46:09.988Z,2.40
2022-09-23T17:48:41.341Z,2.20
2022-09-23T17:51:13.833Z,2.40
2022-09-23T17:53:45.178Z,2.33
2022-09-23T17:56:16.846Z,2.27
2022-09-23T17:58:46.421Z,2.77
2022-09-23T18:01:16.771Z,2.70
2022-09-23T18:03:45.227Z,2.60
2022-09-23T18:06:15.781Z,2.53
2022-09-23T18:08:48.747Z,3.30
2022-09-23T18:11:19.233Z,3.43
2022-09-23T18:13:52.469Z,2.83
2022-09-23T18:16:22.254Z,2.73
2022-09-23T18:18:54.527Z,3.10
2022-09-23T18:21:23.850Z,2.90
2022-09-23T18:23:53.668Z,3.17
2022-09-23T18:26:23.161Z,3.40
2022-09-23T18:28:53.055Z,3.10
2022-09-23T18:31:22.606Z,2.87
2022-09-23T18:33:51.704Z,3.27
2022-09-23T18:36:20.752Z,3.10
2022-09-23T18:38:49.463Z,3.27
2022-09-23T18:41:20.082Z,3.30
2022-09-23T18:43:48.795Z,3.70
2022-09-23T18:46:18.859Z,3.60
2022-09-23T18:49:04.473Z,3.77
2022-09-23T18:51:35.049Z,3.77
2022-09-23T18:54:05.407Z,3.60
2022-09-23T18:56:41.119Z,3.30
2022-09-23T18:59:12.027Z,3.23
2022-09-23T19:01:40.355Z,3.67
2022-09-23T19:04:08.747Z,3.63
2022-09-23T19:06:37.434Z,3.43
2022-09-23T19:09:07.700Z,3.60
2022-09-23T19:11:37.711Z,3.10
2022-09-23T19:14:10.866Z,3.47
2022-09-23T19:16:40.166Z,3.50
2022-09-23T19:19:09.494Z,3.97
2022-09-23T19:21:37.774Z,3.80
2022-09-23T19:24:08.191Z,4.13
2022-09-23T19:26:40.370Z,3.50
2022-09-23T19:29:12.845Z,3.53
2022-09-23T19:31:42.207Z,3.50
2022-09-23T19:34:14.430Z,3.33
2022-09-23T19:36:44.038Z,3.80
2022-09-23T19:39:17.817Z,4.00
2022-09-23T19:41:48.708Z,4.30
2022-09-23T19:44:17.103Z,3.80
2022-09-23T19:46:53.476Z,3.77
2022-09-23T19:49:25.065Z,3.53
2022-09-23T19:51:55.784Z,3.03
2022-09-23T19:54:26.981Z,3.60
2022-09-23T19:56:56.613Z,3.40
2022-09-23T19:59:26.390Z,3.43
2022-09-23T20:01:54.771Z,3.20
2022-09-23T20:04:23.223Z,3.40
2022-09-23T20:06:51.664Z,2.87
2022-09-23T20:09:20.048Z,3.30
2022-09-23T20:11:48.260Z,3.63
2022-09-23T20:14:19.885Z,3.60
2022-09-23T20:16:48.399Z,2.90
2022-09-23T20:19:16.716Z,3.47
2022-09-23T20:21:44.815Z,2.87
2022-09-23T20:24:13.178Z,3.33
2022-09-23T20:26:58.779Z,2.60
2022-09-23T20:29:28.318Z,2.90
2022-09-23T20:31:58.698Z,2.90
2022-09-23T20:34:27.373Z,3.20
2022-09-23T20:36:55.624Z,2.67
2022-09-23T20:39:23.803Z,3.23
2022-09-23T20:41:53.047Z,2.70
2022-09-23T20:44:21.266Z,2.50
2022-09-23T20:46:51.380Z,2.40
2022-09-23T20:49:20.918Z,2.50
2022-09-23T20:51:50.917Z,2.33
2022-09-23T20:54:19.455Z,2.80
2022-09-23T20:56:48.057Z,2.10
2022-09-23T20:59:18.206Z,3.47
2022-09-23T21:01:47.563Z,3.00
2022-09-23T21:04:17.929Z,3.00
2022-09-23T21:06:46.188Z,3.30
2022-09-23T21:09:14.602Z,2.57
2022-09-23T21:11:42.681Z,3.10
2022-09-23T21:14:11.111Z,2.90
2022-09-23T21:16:39.614Z,2.80
2022-09-23T21:19:10.712Z,3.10
2022-09-23T21:21:40.351Z,3.60
2022-09-23T21:24:36.036Z,3.63
2022-09-23T21:26:56.848Z,4.13
2022-09-23T21:29:25.099Z,4.47
2022-09-23T21:31:53.302Z,4.77
2022-09-23T21:34:21.667Z,5.97
2022-09-23T21:36:51.123Z,5.73
2022-09-23T21:39:19.534Z,5.90
2022-09-23T21:41:47.710Z,5.83
2022-09-23T21:44:16.026Z,6.37
2022-09-23T21:46:44.266Z,6.37
2022-09-23T21:49:12.507Z,6.63
2022-09-23T21:51:41.738Z,8.40
2022-09-23T21:54:14.101Z,7.80
2022-09-23T21:56:42.804Z,8.03
2022-09-23T21:59:11.386Z,8.70
2022-09-23T22:01:42.059Z,9.10
2022-09-23T22:04:15.775Z,8.73
2022-09-23T22:06:44.376Z,8.30
2022-09-23T22:09:15.893Z,8.60
2022-09-23T22:12:02.665Z,8.60
2022-09-23T22:14:31.135Z,8.47
2022-09-23T22:17:01.465Z,8.30
2022-09-23T22:19:35.574Z,7.60
2022-09-23T22:22:13.384Z,7.27
2022-09-23T22:24:43.296Z,6.60
2022-09-23T22:27:13.308Z,6.67
2022-09-23T22:29:59.020Z,6.60
2022-09-23T22:32:41.621Z,6.33
2022-09-23T22:35:11.003Z,6.93
2022-09-23T22:37:39.648Z,6.63
2022-09-23T22:40:14.311Z,6.57
2022-09-23T22:42:43.502Z,6.50
2022-09-23T22:45:13.499Z,6.10
2022-09-23T22:47:45.381Z,6.50
2022-09-23T22:50:15.312Z,6.07
2022-09-23T22:52:44.084Z,5.67
2022-09-23T22:55:13.693Z,6.00
2022-09-23T22:57:41.854Z,6.03
2022-09-23T23:00:12.291Z,5.93
2022-09-23T23:02:42.705Z,5.60
2022-09-23T23:05:11.246Z,6.10
2022-09-23T23:07:39.360Z,5.27
2022-09-23T23:10:10.270Z,5.87
2022-09-23T23:12:41.657Z,5.67
2022-09-23T23:15:12.807Z,5.90
2022-09-23T23:17:43.646Z,5.37
2022-09-23T23:20:12.115Z,6.00
2022-09-23T23:22:40.387Z,5.83
2022-09-23T23:25:09.770Z,5.60
2022-09-23T23:27:39.375Z,5.70
2022-09-23T23:30:09.413Z,5.43
2022-09-23T23:32:37.569Z,5.43
2022-09-23T23:35:06.489Z,5.97
2022-09-23T23:37:34.544Z,5.50
2022-09-23T23:40:03.221Z,6.00
2022-09-23T23:42:31.826Z,5.80
2022-09-23T23:45:01.448Z,5.00
2022-09-23T23:47:29.551Z,5.87
2022-09-23T23:49:57.755Z,5.37
2022-09-23T23:52:25.922Z,5.40
2022-09-23T23:54:54.126Z,5.30
2022-09-23T23:57:22.222Z,5.63
2022-09-23T23:59:50.359Z,5.33
